Time;durP1;ratioP1;P1;durP2;ratioP2;P2;SDS_P1;SDS_P2;PMS_P1;PMS_P2;Temp;Humidity;BMP_temperature;BMP_pressure;BME280_temperature;BME280_humidity;BME280_pressure;Samples;Min_cycle;Max_cycle;Signal;HPM_P1;HPM_P2
2022/12/10 00:00:46;;;;;;;;;;;;;;;;;;6199940;23;19959;-90
2022/12/10 00:03:12;;;;;;;;;;;;;;;;;;6176711;23;20341;-91
2022/12/10 00:05:38;;;;;;;;;;;;;;;;;;6195931;23;19915;-90
2022/12/10 00:08:04;;;;;;;;;;;;;;;;;;6198961;23;20332;-90
2022/12/10 00:10:30;;;;;;;;;;;;;;;;;;6198444;23;20062;-90
2022/12/10 00:12:56;;;;;;;;;;;;;;;;;;6198562;23;20010;-90
2022/12/10 00:15:23;;;;;;;;;;;;;;;;;;6202611;23;19954;-90
2022/12/10 00:17:49;;;;;;;;;;;;;;;;;;6197966;23;19920;-90
2022/12/10 00:20:15;;;;;;;;;;;;;;;;;;6175779;23;19950;-90
2022/12/10 00:22:41;;;;;;;;;;;;;;;;;;6194610;23;19958;-91
2022/12/10 00:25:07;;;;;;;;;;;;;;;;;;6172319;23;19920;-91
2022/12/10 00:27:33;;;;;;;;;;;;;;;;;;6194499;23;19920;-90
2022/12/10 00:30:00;;;;;;;;;;;;;;;;;;6201354;23;19919;-91
2022/12/10 00:32:26;;;;;;;;;;;;;;;;;;6171783;23;19931;-91
2022/12/10 00:34:52;;;;;;;;;;;;;;;;;;6195175;23;20214;-90
2022/12/10 00:37:18;;;;;;;;;;;;;;;;;;6172695;23;19942;-91
2022/12/10 00:39:44;;;;;;;;;;;;;;;;;;6170099;23;20340;-91
2022/12/10 00:42:11;;;;;;;;;;;;;;;;;;6172916;23;19999;-90
2022/12/10 00:44:38;;;;;;;;;;;;;;;;;;6166604;23;20322;-90
2022/12/10 00:47:04;;;;;;;;;;;;;;;;;;6192887;23;19919;-91
2022/12/10 00:49:31;;;;;;;;;;;;;;;;;;6193694;23;19920;-90
2022/12/10 00:51:57;;;;;;;;;;;;;;;;;;6188902;23;19942;-90
2022/12/10 00:54:23;;;;;;;;;;;;;;;;;;6192030;23;20487;-90
2022/12/10 00:56:49;;;;;;;;;;;;;;;;;;6191691;23;19970;-91
2022/12/10 00:59:15;;;;;;;;;;;;;;;;;;6192443;23;20042;-91
2022/12/10 01:01:42;;;;;;;;;;;;;;;;;;6189859;23;19923;-90
2022/12/10 01:04:08;;;;;;;;;;;;;;;;;;6191237;23;20345;-91
2022/12/10 01:06:34;;;;;;;;;;;;;;;;;;6192886;23;19919;-90
2022/12/10 01:09:00;;;;;;;;;;;;;;;;;;6197024;23;19994;-90
2022/12/10 01:11:26;;;;;;;;;;;;;;;;;;6192933;23;19935;-90
2022/12/10 01:13:52;;;;;;;;;;;;;;;;;;6193427;23;20382;-90
2022/12/10 01:16:18;;;;;;;;;;;;;;;;;;6192595;23;19926;-91
2022/12/10 01:18:44;;;;;;;;;;;;;;;;;;6190447;23;19926;-90
2022/12/10 01:21:10;;;;;;;;;;;;;;;;;;6195643;23;20329;-90
2022/12/10 01:23:35;;;;;;;;;;;;;;;;;;6193118;23;20238;-89
2022/12/10 01:26:01;;;;;;;;;;;;;;;;;;6192553;23;20413;-90
2022/12/10 01:28:27;;;;;;;;;;;;;;;;;;6195631;23;19916;-90
2022/12/10 01:30:53;;;;;;;;;;;;;;;;;;6192983;23;19955;-90
2022/12/10 01:33:19;;;;;;;;;;;;;;;;;;6195685;23;19923;-90
2022/12/10 01:35:45;;;;;;;;;;;;;;;;;;6193568;23;19919;-90
2022/12/10 01:38:11;;;;;;;;;;;;;;;;;;6197489;23;19915;-90
2022/12/10 01:40:37;;;;;;;;;;;;;;;;;;6192731;23;19927;-90
2022/12/10 01:43:03;;;;;;;;;;;;;;;;;;6196036;23;19935;-90
2022/12/10 01:45:29;;;;;;;;;;;;;;;;;;6195850;23;19924;-90
2022/12/10 01:47:55;;;;;;;;;;;;;;;;;;6194806;23;20554;-90
2022/12/10 01:50:21;;;;;;;;;;;;;;;;;;6197032;23;19995;-90
2022/12/10 01:52:47;;;;;;;;;;;;;;;;;;6194058;23;20253;-89
2022/12/10 01:55:13;;;;;;;;;;;;;;;;;;6196537;23;19920;-89
2022/12/10 01:57:39;;;;;;;;;;;;;;;;;;6192233;23;20093;-90
2022/12/10 02:00:06;;;;;;;;;;;;;;;;;;6193228;23;19947;-90
2022/12/10 02:02:32;;;;;;;;;;;;;;;;;;6193898;23;19919;-90
2022/12/10 02:04:58;;;;;;;;;;;;;;;;;;6195078;23;19958;-90
2022/12/10 02:07:24;;;;;;;;;;;;;;;;;;6190842;23;20063;-90
2022/12/10 02:09:50;;;;;;;;;;;;;;;;;;6188798;23;19919;-90
2022/12/10 02:12:16;;;;;;;;;;;;;;;;;;6197292;23;19935;-90
2022/12/10 02:14:42;;;;;;;;;;;;;;;;;;6194111;23;20350;-89
2022/12/10 02:17:08;;;;;;;;;;;;;;;;;;6196685;23;19923;-89
2022/12/10 02:19:34;;;;;;;;;;;;;;;;;;6193280;23;20256;-90
2022/12/10 02:22:00;;;;;;;;;;;;;;;;;;6195042;23;19991;-90
2022/12/10 02:24:26;;;;;;;;;;;;;;;;;;6198495;23;19954;-89
2022/12/10 02:26:52;;;;;;;;;;;;;;;;;;6193552;23;20217;-90
2022/12/10 02:29:18;;;;;;;;;;;;;;;;;;6197753;23;19919;-89
2022/12/10 02:31:44;;;;;;;;;;;;;;;;;;6192038;23;19964;-90
2022/12/10 02:34:10;;;;;;;;;;;;;;;;;;6194879;23;20474;-89
2022/12/10 02:36:36;;;;;;;;;;;;;;;;;;6196093;23;19924;-90
2022/12/10 02:39:02;;;;;;;;;;;;;;;;;;6197136;23;19920;-90
2022/12/10 02:41:28;;;;;;;;;;;;;;;;;;6196012;23;19920;-90
2022/12/10 02:43:53;;;;;;;;;;;;;;;;;;6192130;23;19958;-90
2022/12/10 02:46:19;;;;;;;;;;;;;;;;;;6196230;23;20314;-89
2022/12/10 02:48:45;;;;;;;;;;;;;;;;;;6191454;23;20308;-89
2022/12/10 02:51:11;;;;;;;;;;;;;;;;;;6194197;23;20022;-90
2022/12/10 02:53:37;;;;;;;;;;;;;;;;;;6192498;23;19920;-89
2022/12/10 02:56:03;;;;;;;;;;;;;;;;;;6197568;23;19919;-90
2022/12/10 02:58:29;;;;;;;;;;;;;;;;;;6197407;23;19943;-89
2022/12/10 03:00:55;;;;;;;;;;;;;;;;;;6194324;23;19920;-89
2022/12/10 03:03:21;;;;;;;;;;;;;;;;;;6195006;23;19920;-90
2022/12/10 03:05:47;;;;;;;;;;;;;;;;;;6193803;23;20341;-90
2022/12/10 03:08:13;;;;;;;;;;;;;;;;;;6195275;23;20018;-90
2022/12/10 03:10:39;;;;;;;;;;;;;;;;;;6192564;23;19924;-90
2022/12/10 03:13:05;;;;;;;;;;;;;;;;;;6195381;23;19931;-90
2022/12/10 03:15:34;;;;;;;;;;;;;;;;;;6195957;23;19919;-90
2022/12/10 03:18:00;;;;;;;;;;;;;;;;;;6192853;23;19927;-90
2022/12/10 03:20:26;;;;;;;;;;;;;;;;;;6196160;23;19924;-89
2022/12/10 03:22:52;;;;;;;;;;;;;;;;;;6194803;23;20247;-90
2022/12/10 03:25:18;;;;;;;;;;;;;;;;;;6196875;23;19920;-90
2022/12/10 03:27:44;;;;;;;;;;;;;;;;;;6194253;23;19947;-89
2022/12/10 03:30:10;;;;;;;;;;;;;;;;;;6195951;23;20352;-89
2022/12/10 03:32:36;;;;;;;;;;;;;;;;;;6192359;23;20300;-90
2022/12/10 03:35:02;;;;;;;;;;;;;;;;;;6194184;23;19920;-90
2022/12/10 03:37:28;;;;;;;;;;;;;;;;;;6193481;23;19931;-89
2022/12/10 03:39:54;;;;;;;;;;;;;;;;;;6192518;23;19991;-90
2022/12/10 03:42:20;;;;;;;;;;;;;;;;;;6194559;23;19919;-90
2022/12/10 03:44:46;;;;;;;;;;;;;;;;;;6196132;23;20016;-89
2022/12/10 03:47:12;;;;;;;;;;;;;;;;;;6200114;23;19969;-90
2022/12/10 03:49:38;;;;;;;;;;;;;;;;;;6168458;23;19969;-90
2022/12/10 03:52:03;;;;;;;;;;;;;;;;;;6226726;23;19959;-89
2022/12/10 03:54:29;;;;;;;;;;;;;;;;;;6201409;23;19958;-90
2022/12/10 03:56:55;;;;;;;;;;;;;;;;;;6170579;23;20293;-89
2022/12/10 03:59:21;;;;;;;;;;;;;;;;;;6174224;23;19920;-90
2022/12/10 04:01:47;;;;;;;;;;;;;;;;;;6196359;23;20022;-90
2022/12/10 04:04:13;;;;;;;;;;;;;;;;;;6197880;23;19923;-90
2022/12/10 04:06:39;;;;;;;;;;;;;;;;;;6173657;23;19927;-89
2022/12/10 04:09:05;;;;;;;;;;;;;;;;;;6175317;23;19927;-90
2022/12/10 04:11:34;;;;;;;;;;;;;;;;;;6199992;23;20364;-89
2022/12/10 04:16:45;;;;;;;;;;;;;;;;;;6196310;23;20364;-90
2022/12/10 04:19:11;;;;;;;;;;;;;;;;;;6199326;23;19954;-89
2022/12/10 04:27:06;;;;;;;;;;;;;;;;;;6198519;23;19923;-89
2022/12/10 04:29:32;;;;;;;;;;;;;;;;;;6177740;23;19977;-90
2022/12/10 04:31:58;;;;;;;;;;;;;;;;;;6175554;23;20403;-89
2022/12/10 04:34:24;;;;;;;;;;;;;;;;;;6198404;23;19924;-90
2022/12/10 04:36:50;;;;;;;;;;;;;;;;;;6172348;23;19964;-89
2022/12/10 04:39:16;;;;;;;;;;;;;;;;;;6199984;23;20295;-90
2022/12/10 04:41:42;;;;;;;;;;;;;;;;;;6170769;23;19920;-89
2022/12/10 04:44:08;;;;;;;;;;;;;;;;;;6196709;23;20414;-89
2022/12/10 04:46:34;;;;;;;;;;;;;;;;;;6195638;23;19923;-89
2022/12/10 04:49:00;;;;;;;;;;;;;;;;;;6199707;23;19919;-90
2022/12/10 04:51:26;;;;;;;;;;;;;;;;;;6174142;23;19950;-89
2022/12/10 04:53:52;;;;;;;;;;;;;;;;;;6171792;22;20298;-90
2022/12/10 04:56:17;;;;;;;;;;;;;;;;;;6200084;23;19935;-90
2022/12/10 04:58:43;;;;;;;;;;;;;;;;;;6196119;23;20041;-89
2022/12/10 05:01:09;;;;;;;;;;;;;;;;;;6176221;23;19916;-89
2022/12/10 05:03:35;;;;;;;;;;;;;;;;;;6197193;23;19930;-90
2022/12/10 05:06:02;;;;;;;;;;;;;;;;;;6174786;23;19922;-90
2022/12/10 05:08:28;;;;;;;;;;;;;;;;;;6175947;23;20395;-90
2022/12/10 05:10:54;;;;;;;;;;;;;;;;;;6173047;23;19930;-89
2022/12/10 05:13:19;;;;;;;;;;;;;;;;;;6197068;23;19924;-89
2022/12/10 05:15:45;;;;;;;;;;;;;;;;;;6196775;23;19923;-89
2022/12/10 05:18:11;;;;;;;;;;;;;;;;;;6200152;23;19955;-89
2022/12/10 05:20:37;;;;;;;;;;;;;;;;;;6173569;23;19927;-90
2022/12/10 05:25:54;;;;;;;;;;;;;;;;;;6195700;23;19926;-90
2022/12/10 05:28:20;;;;;;;;;;;;;;;;;;6174407;23;20692;-90
2022/12/10 05:30:46;;;;;;;;;;;;;;;;;;6195409;23;19923;-90
2022/12/10 05:33:12;;;;;;;;;;;;;;;;;;6175919;23;19970;-89
2022/12/10 05:35:38;;;;;;;;;;;;;;;;;;6171316;23;19990;-90
2022/12/10 05:38:05;;;;;;;;;;;;;;;;;;6201182;23;19919;-90
2022/12/10 05:40:31;;;;;;;;;;;;;;;;;;6176274;23;19923;-90
2022/12/10 05:42:56;;;;;;;;;;;;;;;;;;6196696;23;20346;-89
2022/12/10 05:45:22;;;;;;;;;;;;;;;;;;6199365;23;19939;-89
2022/12/10 05:47:48;;;;;;;;;;;;;;;;;;6172627;23;19950;-89
2022/12/10 05:50:14;;;;;;;;;;;;;;;;;;6199623;23;19926;-89
2022/12/10 05:52:40;;;;;;;;;;;;;;;;;;6171027;23;19923;-90
2022/12/10 05:55:06;;;;;;;;;;;;;;;;;;6175137;23;19923;-89
2022/12/10 05:57:32;;;;;;;;;;;;;;;;;;6173416;23;20004;-89
2022/12/10 05:59:58;;;;;;;;;;;;;;;;;;6197875;23;19955;-90
2022/12/10 06:02:24;;;;;;;;;;;;;;;;;;6173503;23;19923;-89
2022/12/10 06:04:50;;;;;;;;;;;;;;;;;;6173967;23;19923;-89
2022/12/10 06:07:16;;;;;;;;;;;;;;;;;;6175444;23;20420;-90
2022/12/10 06:09:42;;;;;;;;;;;;;;;;;;6196149;23;20426;-90
2022/12/10 06:12:08;;;;;;;;;;;;;;;;;;6170720;23;19924;-90
2022/12/10 06:14:34;;;;;;;;;;;;;;;;;;6192537;23;20326;-89
2022/12/10 06:16:59;;;;;;;;;;;;;;;;;;6200041;23;19939;-90
2022/12/10 06:19:25;;;;;;;;;;;;;;;;;;6175118;23;19993;-89
2022/12/10 06:21:51;;;;;;;;;;;;;;;;;;6197831;23;19919;-89
2022/12/10 06:24:17;;;;;;;;;;;;;;;;;;6171944;23;20029;-90
2022/12/10 06:26:43;;;;;;;;;;;;;;;;;;6197460;23;19997;-90
2022/12/10 06:29:09;;;;;;;;;;;;;;;;;;6197360;23;20348;-89
2022/12/10 06:31:35;;;;;;;;;;;;;;;;;;6171362;23;20352;-90
2022/12/10 06:34:01;;;;;;;;;;;;;;;;;;6173272;23;20359;-90
2022/12/10 06:36:27;;;;;;;;;;;;;;;;;;6201940;23;19920;-90
2022/12/10 06:38:53;;;;;;;;;;;;;;;;;;6199553;23;20331;-90
2022/12/10 06:41:22;;;;;;;;;;;;;;;;;;6199175;23;19919;-90
2022/12/10 06:43:48;;;;;;;;;;;;;;;;;;6168856;23;20291;-90
2022/12/10 06:46:14;;;;;;;;;;;;;;;;;;6199103;23;19947;-90
2022/12/10 06:48:40;;;;;;;;;;;;;;;;;;6194350;23;19919;-90
2022/12/10 06:51:06;;;;;;;;;;;;;;;;;;6198578;23;19920;-90
2022/12/10 06:53:32;;;;;;;;;;;;;;;;;;6173035;23;19970;-89
2022/12/10 06:55:59;;;;;;;;;;;;;;;;;;6198583;23;19979;-90
2022/12/10 06:58:25;;;;;;;;;;;;;;;;;;6177771;23;19916;-90
2022/12/10 07:00:51;;;;;;;;;;;;;;;;;;6173826;23;19920;-90
2022/12/10 07:03:17;;;;;;;;;;;;;;;;;;6198908;23;19925;-90
2022/12/10 07:05:43;;;;;;;;;;;;;;;;;;6197695;23;19993;-89
2022/12/10 07:08:09;;;;;;;;;;;;;;;;;;6198754;23;19920;-89
2022/12/10 07:10:35;;;;;;;;;;;;;;;;;;6200058;23;19991;-90
2022/12/10 07:13:01;;;;;;;;;;;;;;;;;;6199894;23;19924;-89
2022/12/10 07:15:28;;;;;;;;;;;;;;;;;;6174930;23;19954;-90
2022/12/10 07:17:54;;;;;;;;;;;;;;;;;;6198349;23;20265;-90
2022/12/10 07:20:20;;;;;;;;;;;;;;;;;;6200932;23;20122;-91
2022/12/10 07:22:46;;;;;;;;;;;;;;;;;;6171504;23;20038;-90
2022/12/10 07:25:12;;;;;;;;;;;;;;;;;;6199853;23;20212;-90
2022/12/10 07:27:37;;;;;;;;;;;;;;;;;;6171995;23;20014;-90
2022/12/10 07:30:03;;;;;;;;;;;;;;;;;;6200180;23;19994;-90
2022/12/10 07:32:29;;;;;;;;;;;;;;;;;;6176606;23;19923;-95
2022/12/10 07:34:55;;;;;;;;;;;;;;;;;;6198668;23;19924;-91
2022/12/10 07:37:24;;;;;;;;;;;;;;;;;;6203167;23;19920;-92
2022/12/10 07:39:50;;;;;;;;;;;;;;;;;;6170803;23;20342;-91
2022/12/10 07:42:16;;;;;;;;;;;;;;;;;;6199231;23;19930;-91
2022/12/10 07:44:42;;;;;;;;;;;;;;;;;;6197722;23;19920;-91
2022/12/10 07:47:08;;;;;;;;;;;;;;;;;;6195937;23;19919;-91
2022/12/10 07:49:34;;;;;;;;;;;;;;;;;;6170353;23;19943;-91
2022/12/10 07:52:00;;;;;;;;;;;;;;;;;;6198153;23;20003;-92
2022/12/10 07:54:26;;;;;;;;;;;;;;;;;;6199216;23;19962;-91
2022/12/10 07:56:52;;;;;;;;;;;;;;;;;;6173673;23;19919;-91
2022/12/10 07:59:17;;;;;;;;;;;;;;;;;;6174292;23;19920;-91
2022/12/10 08:01:44;;;;;;;;;;;;;;;;;;6167267;23;19920;-91
2022/12/10 08:04:10;;;;;;;;;;;;;;;;;;6173428;23;19920;-91
2022/12/10 08:06:36;;;;;;;;;;;;;;;;;;6173132;23;20391;-91
2022/12/10 08:09:02;;;;;;;;;;;;;;;;;;6196570;23;19993;-90
2022/12/10 08:11:28;;;;;;;;;;;;;;;;;;6175379;23;19930;-91
2022/12/10 08:13:54;;;;;;;;;;;;;;;;;;6196067;23;20588;-91
2022/12/10 08:16:20;;;;;;;;;;;;;;;;;;6170486;23;20013;-92
2022/12/10 08:18:46;;;;;;;;;;;;;;;;;;6195724;23;19955;-91
2022/12/10 08:21:12;;;;;;;;;;;;;;;;;;6171435;23;19971;-91
2022/12/10 08:23:38;;;;;;;;;;;;;;;;;;6169660;23;20336;-90
2022/12/10 08:26:04;;;;;;;;;;;;;;;;;;6200971;23;19986;-91
2022/12/10 08:28:30;;;;;;;;;;;;;;;;;;6195926;23;20229;-91
2022/12/10 08:30:56;;;;;;;;;;;;;;;;;;6169384;23;19924;-93
2022/12/10 08:33:22;;;;;;;;;;;;;;;;;;6194313;23;19935;-92
2022/12/10 08:35:48;;;;;;;;;;;;;;;;;;6170460;23;19935;-92
2022/12/10 08:38:14;;;;;;;;;;;;;;;;;;6197747;23;19920;-91
2022/12/10 08:40:40;;;;;;;;;;;;;;;;;;6194164;23;20724;-91
2022/12/10 08:43:06;;;;;;;;;;;;;;;;;;6171495;23;19994;-92
2022/12/10 08:45:32;;;;;;;;;;;;;;;;;;6194489;23;19994;-91
2022/12/10 08:47:58;;;;;;;;;;;;;;;;;;6195661;23;19923;-92
2022/12/10 08:50:24;;;;;;;;;;;;;;;;;;6174300;23;19930;-91
2022/12/10 08:52:50;;;;;;;;;;;;;;;;;;6173225;23;19931;-91
2022/12/10 08:55:16;;;;;;;;;;;;;;;;;;6175003;23;19923;-91
2022/12/10 08:57:41;;;;;;;;;;;;;;;;;;6197029;23;19972;-92
2022/12/10 09:00:07;;;;;;;;;;;;;;;;;;6175581;23;19931;-92
2022/12/10 09:02:33;;;;;;;;;;;;;;;;;;6197062;23;20477;-93
2022/12/10 09:05:00;;;;;;;;;;;;;;;;;;6201052;23;20487;-91
2022/12/10 09:07:26;;;;;;;;;;;;;;;;;;6199305;23;20321;-92
2022/12/10 09:09:52;;;;;;;;;;;;;;;;;;6197184;23;20293;-92
2022/12/10 09:12:18;;;;;;;;;;;;;;;;;;6201535;23;20253;-91
2022/12/10 09:14:44;;;;;;;;;;;;;;;;;;6195366;23;19916;-90
2022/12/10 09:17:10;;;;;;;;;;;;;;;;;;6173865;23;20312;-91
2022/12/10 09:19:36;;;;;;;;;;;;;;;;;;6170886;23;19927;-92
2022/12/10 09:22:02;;;;;;;;;;;;;;;;;;6175669;23;20244;-92
2022/12/10 09:24:28;;;;;;;;;;;;;;;;;;6158265;23;19920;-92
2022/12/10 09:26:54;;;;;;;;;;;;;;;;;;6192086;23;20329;-92
2022/12/10 09:29:20;;;;;;;;;;;;;;;;;;6198917;23;20332;-92
2022/12/10 09:31:46;;;;;;;;;;;;;;;;;;6170193;23;20251;-91
2022/12/10 09:34:12;;;;;;;;;;;;;;;;;;6174722;23;19997;-92
2022/12/10 09:36:38;;;;;;;;;;;;;;;;;;6194659;23;19924;-92
2022/12/10 09:39:04;;;;;;;;;;;;;;;;;;6199680;23;19916;-92
2022/12/10 09:41:30;;;;;;;;;;;;;;;;;;6200760;23;20014;-92
2022/12/10 09:43:56;;;;;;;;;;;;;;;;;;6172755;23;19951;-92
2022/12/10 09:46:22;;;;;;;;;;;;;;;;;;6198260;23;20333;-92
2022/12/10 09:48:48;;;;;;;;;;;;;;;;;;6171580;23;20295;-96
2022/12/10 09:51:14;;;;;;;;;;;;;;;;;;6178431;23;19915;-92
2022/12/10 09:53:40;;;;;;;;;;;;;;;;;;6197478;22;19998;-92
2022/12/10 09:56:06;;;;;;;;;;;;;;;;;;6168982;23;19924;-92
2022/12/10 09:58:32;;;;;;;;;;;;;;;;;;6201214;23;19927;-92
2022/12/10 10:00:58;;;;;;;;;;;;;;;;;;6197475;23;19919;-92
2022/12/10 10:03:24;;;;;;;;;;;;;;;;;;6174542;23;19951;-90
2022/12/10 10:05:50;;;;;;;;;;;;;;;;;;6194322;23;20015;-93
2022/12/10 10:08:16;;;;;;;;;;;;;;;;;;6199298;23;19931;-92
2022/12/10 10:10:42;;;;;;;;;;;;;;;;;;6171833;23;19977;-92
2022/12/10 10:13:08;;;;;;;;;;;;;;;;;;6172377;23;20321;-92
2022/12/10 10:15:34;;;;;;;;;;;;;;;;;;6170491;23;20093;-92
2022/12/10 10:18:00;;;;;;;;;;;;;;;;;;6197496;23;19924;-93
2022/12/10 10:20:26;;;;;;;;;;;;;;;;;;6201504;23;19924;-93
2022/12/10 10:22:51;;;;;;;;;;;;;;;;;;6197797;23;19919;-93
2022/12/10 10:25:17;;;;;;;;;;;;;;;;;;6173758;23;19915;-93
2022/12/10 10:27:43;;;;;;;;;;;;;;;;;;6194051;23;19919;-93
2022/12/10 10:30:09;;;;;;;;;;;;;;;;;;6169541;23;20477;-93
2022/12/10 10:32:35;;;;;;;;;;;;;;;;;;6169402;23;20015;-93
2022/12/10 10:35:02;;;;;;;;;;;;;;;;;;6174628;23;20380;-93
2022/12/10 10:37:31;;;;;;;;;;;;;;;;;;6175344;23;19915;-93
2022/12/10 10:39:57;;;;;;;;;;;;;;;;;;6199157;23;19919;-93
2022/12/10 10:42:23;;;;;;;;;;;;;;;;;;6174076;23;19941;-93
2022/12/10 10:44:49;;;;;;;;;;;;;;;;;;6175203;23;19915;-93
2022/12/10 10:47:15;;;;;;;;;;;;;;;;;;6201687;23;20336;-93
2022/12/10 10:49:40;;;;;;;;;;;;;;;;;;6170696;23;20188;-93
2022/12/10 10:52:07;;;;;;;;;;;;;;;;;;6175434;23;19930;-93
2022/12/10 10:54:33;;;;;;;;;;;;;;;;;;6171644;23;19919;-92
2022/12/10 10:56:59;;;;;;;;;;;;;;;;;;6201249;23;19919;-93
2022/12/10 10:59:25;;;;;;;;;;;;;;;;;;6177346;23;19919;-92
2022/12/10 11:01:51;;;;;;;;;;;;;;;;;;6172667;23;19957;-92
2022/12/10 11:04:17;;;;;;;;;;;;;;;;;;6177217;23;20363;-92
2022/12/10 11:06:43;;;;;;;;;;;;;;;;;;6174159;23;19919;-91
2022/12/10 11:09:09;;;;;;;;;;;;;;;;;;6178399;23;20522;-92
2022/12/10 11:11:35;;;;;;;;;;;;;;;;;;6174723;23;19927;-93
2022/12/10 11:14:01;;;;;;;;;;;;;;;;;;6173390;23;19927;-92
2022/12/10 11:16:27;;;;;;;;;;;;;;;;;;6197349;23;19919;-92
2022/12/10 11:18:53;;;;;;;;;;;;;;;;;;6171941;23;19919;-92
2022/12/10 11:21:21;;;;;;;;;;;;;;;;;;6176005;23;20018;-92
2022/12/10 11:23:47;;;;;;;;;;;;;;;;;;6171917;23;19919;-92
2022/12/10 11:26:13;;;;;;;;;;;;;;;;;;6199775;23;20347;-95
2022/12/10 11:28:39;;;;;;;;;;;;;;;;;;6174072;23;19925;-91
2022/12/10 11:31:05;;;;;;;;;;;;;;;;;;6202080;23;20256;-92
2022/12/10 11:33:31;;;;;;;;;;;;;;;;;;6178074;23;19920;-92
2022/12/10 11:35:57;;;;;;;;;;;;;;;;;;6173459;23;20156;-91
2022/12/10 11:38:23;;;;;;;;;;;;;;;;;;6172747;23;19929;-92
2022/12/10 11:40:49;;;;;;;;;;;;;;;;;;6169571;23;19927;-92
2022/12/10 11:43:15;;;;;;;;;;;;;;;;;;6199052;23;19922;-90
2022/12/10 11:45:41;;;;;;;;;;;;;;;;;;6171851;23;20408;-91
2022/12/10 11:48:07;;;;;;;;;;;;;;;;;;6200720;23;19919;-91
2022/12/10 11:50:33;;;;;;;;;;;;;;;;;;6176206;23;19958;-90
2022/12/10 11:52:59;;;;;;;;;;;;;;;;;;6206125;23;20462;-90
2022/12/10 11:55:25;;;;;;;;;;;;;;;;;;6204774;23;19926;-91
2022/12/10 11:57:51;;;;;;;;;;;;;;;;;;6177138;23;20684;-90
2022/12/10 12:00:17;;;;;;;;;;;;;;;;;;6178134;23;19977;-91
2022/12/10 12:02:43;;;;;;;;;;;;;;;;;;6198702;23;19950;-91
2022/12/10 12:05:09;;;;;;;;;;;;;;;;;;6178608;23;19926;-91
2022/12/10 12:07:35;;;;;;;;;;;;;;;;;;6173572;23;19919;-91
2022/12/10 12:10:13;;;;;;;;;;;;;;;;;;6200645;23;19926;-90
2022/12/10 12:12:39;;;;;;;;;;;;;;;;;;6174058;23;19923;-92
2022/12/10 12:15:05;;;;;;;;;;;;;;;;;;6198267;23;19922;-90
2022/12/10 12:17:31;;;;;;;;;;;;;;;;;;6197621;23;20246;-92
2022/12/10 12:19:57;;;;;;;;;;;;;;;;;;6170278;23;20154;-91
2022/12/10 12:22:23;;;;;;;;;;;;;;;;;;6169570;23;19926;-91
2022/12/10 12:24:49;;;;;;;;;;;;;;;;;;6169262;23;20340;-90
2022/12/10 12:27:15;;;;;;;;;;;;;;;;;;6197083;23;20010;-91
2022/12/10 12:29:41;;;;;;;;;;;;;;;;;;6173946;23;19966;-91
2022/12/10 12:32:07;;;;;;;;;;;;;;;;;;6197573;23;20333;-91
2022/12/10 12:34:33;;;;;;;;;;;;;;;;;;6194998;23;19920;-91
2022/12/10 12:36:59;;;;;;;;;;;;;;;;;;6173292;23;20014;-90
2022/12/10 12:39:25;;;;;;;;;;;;;;;;;;6206413;23;20240;-89
2022/12/10 12:41:51;;;;;;;;;;;;;;;;;;6178834;23;19915;-90
2022/12/10 12:44:17;;;;;;;;;;;;;;;;;;6180272;23;20009;-90
2022/12/10 12:46:43;;;;;;;;;;;;;;;;;;6204757;23;20360;-90
2022/12/10 12:49:10;;;;;;;;;;;;;;;;;;6204265;23;20307;-90
2022/12/10 12:51:36;;;;;;;;;;;;;;;;;;6202786;23;19966;-90
2022/12/10 12:54:02;;;;;;;;;;;;;;;;;;6206683;22;19916;-90
2022/12/10 12:56:29;;;;;;;;;;;;;;;;;;6206536;23;20361;-90
2022/12/10 12:58:55;;;;;;;;;;;;;;;;;;6203321;23;20022;-90
2022/12/10 13:01:21;;;;;;;;;;;;;;;;;;6181211;23;19920;-90
2022/12/10 13:03:47;;;;;;;;;;;;;;;;;;6180391;23;19923;-90
2022/12/10 13:06:13;;;;;;;;;;;;;;;;;;6206793;23;20257;-90
2022/12/10 13:08:39;;;;;;;;;;;;;;;;;;6177285;23;19915;-90
2022/12/10 13:11:05;;;;;;;;;;;;;;;;;;6182502;23;19969;-90
2022/12/10 13:13:31;;;;;;;;;;;;;;;;;;6180753;23;20002;-90
2022/12/10 13:15:57;;;;;;;;;;;;;;;;;;6204348;23;19919;-90
2022/12/10 13:18:22;;;;;;;;;;;;;;;;;;6205948;23;20017;-91
2022/12/10 13:20:49;;;;;;;;;;;;;;;;;;6179046;23;19920;-88
2022/12/10 13:23:15;;;;;;;;;;;;;;;;;;6181586;23;20363;-89
2022/12/10 13:25:41;;;;;;;;;;;;;;;;;;6178758;23;19920;-89
2022/12/10 13:28:06;;;;;;;;;;;;;;;;;;6182603;23;20244;-89
2022/12/10 13:30:33;;;;;;;;;;;;;;;;;;6206105;23;19946;-89
2022/12/10 13:32:59;;;;;;;;;;;;;;;;;;6205205;23;20375;-89
2022/12/10 13:35:25;;;;;;;;;;;;;;;;;;6179434;23;19916;-89
2022/12/10 13:37:54;;;;;;;;;;;;;;;;;;6178676;23;19945;-88
2022/12/10 13:40:19;;;;;;;;;;;;;;;;;;6205519;23;19945;-89
2022/12/10 13:45:30;;;;;;;;;;;;;;;;;;6204449;23;19982;-89
2022/12/10 13:47:56;;;;;;;;;;;;;;;;;;6203325;23;19919;-89
2022/12/10 13:50:22;;;;;;;;;;;;;;;;;;6207228;23;19919;-89
2022/12/10 13:52:48;;;;;;;;;;;;;;;;;;6203597;23;20324;-89
2022/12/10 13:55:14;;;;;;;;;;;;;;;;;;6204629;23;20325;-89
2022/12/10 13:57:40;;;;;;;;;;;;;;;;;;6177963;23;20249;-89
2022/12/10 14:00:06;;;;;;;;;;;;;;;;;;6180884;23;20396;-89
2022/12/10 14:02:32;;;;;;;;;;;;;;;;;;6179826;23;19957;-89
2022/12/10 14:04:58;;;;;;;;;;;;;;;;;;6207832;23;19919;-89
2022/12/10 14:07:24;;;;;;;;;;;;;;;;;;6207432;23;19923;-89
2022/12/10 14:09:51;;;;;;;;;;;;;;;;;;6201565;23;19919;-89
2022/12/10 14:12:17;;;;;;;;;;;;;;;;;;6183657;23;20296;-89
2022/12/10 14:14:42;;;;;;;;;;;;;;;;;;6206528;23;19962;-89
2022/12/10 14:17:08;;;;;;;;;;;;;;;;;;6208674;23;19919;-89
2022/12/10 14:19:34;;;;;;;;;;;;;;;;;;6206179;23;20359;-90
2022/12/10 14:22:00;;;;;;;;;;;;;;;;;;6184428;23;20345;-89
2022/12/10 14:24:26;;;;;;;;;;;;;;;;;;6208072;23;20363;-89
2022/12/10 14:26:52;;;;;;;;;;;;;;;;;;6180701;23;20881;-89
2022/12/10 14:29:18;;;;;;;;;;;;;;;;;;6208965;23;19920;-89
2022/12/10 14:31:44;;;;;;;;;;;;;;;;;;6177735;23;19923;-89
2022/12/10 14:34:10;;;;;;;;;;;;;;;;;;6181243;23;19954;-89
2022/12/10 14:36:36;;;;;;;;;;;;;;;;;;6205985;23;19930;-89
2022/12/10 14:39:02;;;;;;;;;;;;;;;;;;6207940;23;19919;-89
2022/12/10 14:41:28;;;;;;;;;;;;;;;;;;6208232;23;19920;-89
2022/12/10 14:43:54;;;;;;;;;;;;;;;;;;6204921;23;20086;-89
2022/12/10 14:46:22;;;;;;;;;;;;;;;;;;6204832;23;19926;-89
2022/12/10 14:48:48;;;;;;;;;;;;;;;;;;6180614;23;19926;-88
2022/12/10 14:51:14;;;;;;;;;;;;;;;;;;6207981;23;19995;-89
2022/12/10 14:53:40;;;;;;;;;;;;;;;;;;6203956;22;20006;-89
2022/12/10 14:56:06;;;;;;;;;;;;;;;;;;6183936;23;20348;-89
2022/12/10 14:58:32;;;;;;;;;;;;;;;;;;6208147;23;20252;-90
2022/12/10 15:00:58;;;;;;;;;;;;;;;;;;6204384;23;19920;-89
2022/12/10 15:03:24;;;;;;;;;;;;;;;;;;6181326;23;20003;-89
2022/12/10 15:05:50;;;;;;;;;;;;;;;;;;6181580;23;19931;-89
2022/12/10 15:08:16;;;;;;;;;;;;;;;;;;6209538;23;19919;-89
2022/12/10 15:10:55;;;;;;;;;;;;;;;;;;6174527;23;19923;-91
2022/12/10 15:14:07;;;;;;;;;;;;;;;;;;6175435;23;19946;-89
2022/12/10 15:16:20;;;;;;;;;;;;;;;;;;6189775;23;19919;-90
2022/12/10 15:18:46;;;;;;;;;;;;;;;;;;6170937;23;19924;-90
2022/12/10 15:21:16;;;;;;;;;;;;;;;;;;6177200;23;19951;-90
2022/12/10 15:23:42;;;;;;;;;;;;;;;;;;6175206;23;19919;-91
2022/12/10 15:26:08;;;;;;;;;;;;;;;;;;6174976;23;19919;-89
2022/12/10 15:28:34;;;;;;;;;;;;;;;;;;6193766;23;19919;-89
2022/12/10 15:31:00;;;;;;;;;;;;;;;;;;6205696;23;20018;-88
2022/12/10 15:33:26;;;;;;;;;;;;;;;;;;6182436;23;19953;-88
2022/12/10 15:35:52;;;;;;;;;;;;;;;;;;6178662;23;20608;-88
2022/12/10 15:38:18;;;;;;;;;;;;;;;;;;6179009;23;19927;-88
2022/12/10 15:40:44;;;;;;;;;;;;;;;;;;6196896;23;19924;-89
2022/12/10 15:43:11;;;;;;;;;;;;;;;;;;6173879;23;20248;-90
2022/12/10 15:45:39;;;;;;;;;;;;;;;;;;6173047;23;19927;-91
2022/12/10 15:48:06;;;;;;;;;;;;;;;;;;6175570;23;19934;-90
2022/12/10 15:50:34;;;;;;;;;;;;;;;;;;6177459;23;20022;-90
2022/12/10 15:53:01;;;;;;;;;;;;;;;;;;6179759;23;19959;-88
2022/12/10 15:55:27;;;;;;;;;;;;;;;;;;6179925;23;20352;-92
2022/12/10 15:57:52;;;;;;;;;;;;;;;;;;6182770;23;20256;-91
2022/12/10 16:00:21;;;;;;;;;;;;;;;;;;6184621;23;19954;-91
2022/12/10 16:02:48;;;;;;;;;;;;;;;;;;6183533;23;19998;-92
2022/12/10 16:05:14;;;;;;;;;;;;;;;;;;6186126;23;19919;-92
2022/12/10 16:07:40;;;;;;;;;;;;;;;;;;6182334;23;19955;-92
2022/12/10 16:10:06;;;;;;;;;;;;;;;;;;6185728;23;19920;-92
2022/12/10 16:12:35;;;;;;;;;;;;;;;;;;6184522;23;19923;-92
2022/12/10 16:15:01;;;;;;;;;;;;;;;;;;6185655;23;19922;-91
2022/12/10 16:17:27;;;;;;;;;;;;;;;;;;6210762;23;19923;-92
2022/12/10 16:19:53;;;;;;;;;;;;;;;;;;6182896;23;20716;-92
2022/12/10 16:22:19;;;;;;;;;;;;;;;;;;6183111;23;19919;-91
2022/12/10 16:24:45;;;;;;;;;;;;;;;;;;6207914;23;19926;-91
2022/12/10 16:27:11;;;;;;;;;;;;;;;;;;6185697;23;19954;-92
2022/12/10 16:29:37;;;;;;;;;;;;;;;;;;6182216;23;19915;-91
2022/12/10 16:32:03;;;;;;;;;;;;;;;;;;6209591;23;19920;-92
2022/12/10 16:34:28;;;;;;;;;;;;;;;;;;6182761;23;19920;-92
2022/12/10 16:36:54;;;;;;;;;;;;;;;;;;6179695;23;19919;-92
2022/12/10 16:39:20;;;;;;;;;;;;;;;;;;6183054;23;20340;-91
2022/12/10 16:41:46;;;;;;;;;;;;;;;;;;6181847;23;20137;-92
2022/12/10 16:44:12;;;;;;;;;;;;;;;;;;6185091;23;20291;-92
2022/12/10 16:46:39;;;;;;;;;;;;;;;;;;6181126;23;20280;-92
2022/12/10 16:49:05;;;;;;;;;;;;;;;;;;6185258;23;19923;-92
2022/12/10 16:51:32;;;;;;;;;;;;;;;;;;6184608;23;20255;-92